Aviation Digital Data Service (ADDS)

Output produced by METARs form (1812 UTC 14 August 2018)
found at http://www.aviationweather.gov/adds/metars/
 
SUCA 141730Z 1418/1518 25012KT CAVOK TX13/1518Z TN08/1510Z TEMP 
     BECMG 1507/1511 18008KT
       
SUDU 141730Z 1418/1518 23012KT CAVOK TX14/1518Z TN05/1510Z 
     TEMPO 1502/1511 18005KT 3000 BR NSC 
     BECMG 1513/1515 16008KT 9999 FEW015
       
SUMU 141730Z 1418/1518 23015KT CAVOK TX14/1518Z TN09/1510Z 
     TEMPO 1507/1511 18005KT 3000 BR NSC 
     BECMG 1513/1515 16008KT 9999 FEW015
       
SUAA 141730Z 1418/1518 23015KT CAVOK TX14/1518Z TN09/1510Z 
     TEMPO 1507/1511 18005KT 3000 BR NSC 
     BECMG 1513/1515 16008KT 9999 FEW015
       
SULS 141730Z 1418/1518 25015KT CAVOK TX14/1510Z TN08/1510Z 
     TEMPO 1508/1511 20005KT 3000 BR 
     BECMG 1513/1515 18008KT 9999 FEW015
       
SURV 141730Z 1418/1518 18015KT 9999 SCT020 TX16/1518Z TN06/1510Z 
     TEMPO 1502/1511 16005KT 3000 BR NSC 
     BECMG 1512/1514 14008KT 9999 SCT015
       
SUSO 141730Z 1418/1518 23016KT CAVOK TX17/1518Z TN06/1510Z 
     TEMPO 1502/1511 18005KT 3000 BR NSC 
     BECMG 1512/1514 16008KT 9999 FEW015